sensor_id;sensor_type;location;lat;lon;timestamp;P1;durP1;ratioP1;P2;durP2;ratioP2
51810;SDS011;52468;40.116;18.296;2023-09-12T00:01:56;25.13;;;19.43;;
51810;SDS011;52468;40.116;18.296;2023-09-12T00:04:24;26.10;;;20.17;;
51810;SDS011;52468;40.116;18.296;2023-09-12T00:06:52;23.70;;;19.70;;
51810;SDS011;52468;40.116;18.296;2023-09-12T00:09:20;23.60;;;18.97;;
51810;SDS011;52468;40.116;18.296;2023-09-12T00:11:48;31.50;;;21.17;;
51810;SDS011;52468;40.116;18.296;2023-09-12T00:14:16;28.43;;;18.97;;
51810;SDS011;52468;40.116;18.296;2023-09-12T00:16:45;30.17;;;19.77;;
51810;SDS011;52468;40.116;18.296;2023-09-12T00:19:13;30.17;;;21.83;;
51810;SDS011;52468;40.116;18.296;2023-09-12T00:21:41;24.17;;;19.70;;
51810;SDS011;52468;40.116;18.296;2023-09-12T00:24:09;25.23;;;20.53;;
51810;SDS011;52468;40.116;18.296;2023-09-12T00:26:37;25.53;;;20.07;;
51810;SDS011;52468;40.116;18.296;2023-09-12T00:29:05;24.67;;;19.73;;
51810;SDS011;52468;40.116;18.296;2023-09-12T00:31:33;21.90;;;19.17;;
51810;SDS011;52468;40.116;18.296;2023-09-12T00:34:01;24.70;;;19.43;;
51810;SDS011;52468;40.116;18.296;2023-09-12T00:36:29;23.97;;;20.00;;
51810;SDS011;52468;40.116;18.296;2023-09-12T00:38:57;27.93;;;18.90;;
51810;SDS011;52468;40.116;18.296;2023-09-12T00:41:25;28.07;;;20.10;;
51810;SDS011;52468;40.116;18.296;2023-09-12T00:43:52;26.70;;;20.77;;
51810;SDS011;52468;40.116;18.296;2023-09-12T00:46:20;26.03;;;20.00;;
51810;SDS011;52468;40.116;18.296;2023-09-12T00:48:50;26.83;;;19.80;;
51810;SDS011;52468;40.116;18.296;2023-09-12T00:51:20;28.30;;;22.83;;
51810;SDS011;52468;40.116;18.296;2023-09-12T00:53:51;29.37;;;21.40;;
51810;SDS011;52468;40.116;18.296;2023-09-12T00:56:19;29.17;;;22.93;;
51810;SDS011;52468;40.116;18.296;2023-09-12T00:58:47;30.60;;;22.30;;
51810;SDS011;52468;40.116;18.296;2023-09-12T01:01:18;27.13;;;20.03;;
51810;SDS011;52468;40.116;18.296;2023-09-12T01:03:48;30.33;;;20.20;;
51810;SDS011;52468;40.116;18.296;2023-09-12T01:06:18;23.20;;;19.23;;
51810;SDS011;52468;40.116;18.296;2023-09-12T01:08:48;28.27;;;19.73;;
51810;SDS011;52468;40.116;18.296;2023-09-12T01:11:16;31.83;;;19.80;;
51810;SDS011;52468;40.116;18.296;2023-09-12T01:13:45;29.03;;;22.50;;
51810;SDS011;52468;40.116;18.296;2023-09-12T01:16:13;35.07;;;24.23;;
51810;SDS011;52468;40.116;18.296;2023-09-12T01:18:41;26.63;;;22.93;;
51810;SDS011;52468;40.116;18.296;2023-09-12T01:26:30;38.97;;;23.47;;
51810;SDS011;52468;40.116;18.296;2023-09-12T01:29:07;33.00;;;23.50;;
51810;SDS011;52468;40.116;18.296;2023-09-12T01:31:37;29.27;;;26.07;;
51810;SDS011;52468;40.116;18.296;2023-09-12T01:34:08;30.83;;;24.50;;
51810;SDS011;52468;40.116;18.296;2023-09-12T01:36:40;38.50;;;24.80;;
51810;SDS011;52468;40.116;18.296;2023-09-12T01:39:08;41.23;;;26.77;;
51810;SDS011;52468;40.116;18.296;2023-09-12T01:41:38;34.53;;;27.70;;
51810;SDS011;52468;40.116;18.296;2023-09-12T01:44:10;40.20;;;29.47;;
51810;SDS011;52468;40.116;18.296;2023-09-12T01:46:40;37.63;;;28.67;;
51810;SDS011;52468;40.116;18.296;2023-09-12T01:49:10;45.07;;;29.60;;
51810;SDS011;52468;40.116;18.296;2023-09-12T01:51:39;37.40;;;27.97;;
51810;SDS011;52468;40.116;18.296;2023-09-12T01:54:07;37.60;;;26.63;;
51810;SDS011;52468;40.116;18.296;2023-09-12T01:56:37;35.03;;;28.03;;
51810;SDS011;52468;40.116;18.296;2023-09-12T01:59:06;39.03;;;27.63;;
51810;SDS011;52468;40.116;18.296;2023-09-12T02:01:34;38.40;;;29.00;;
51810;SDS011;52468;40.116;18.296;2023-09-12T02:04:02;41.17;;;27.17;;
51810;SDS011;52468;40.116;18.296;2023-09-12T02:06:35;35.37;;;28.50;;
51810;SDS011;52468;40.116;18.296;2023-09-12T02:09:03;35.43;;;28.23;;
51810;SDS011;52468;40.116;18.296;2023-09-12T02:11:31;33.50;;;25.97;;
51810;SDS011;52468;40.116;18.296;2023-09-12T02:13:59;39.30;;;25.83;;
51810;SDS011;52468;40.116;18.296;2023-09-12T02:16:27;31.50;;;25.33;;
51810;SDS011;52468;40.116;18.296;2023-09-12T02:18:56;29.57;;;23.27;;
51810;SDS011;52468;40.116;18.296;2023-09-12T02:21:24;32.33;;;25.70;;
51810;SDS011;52468;40.116;18.296;2023-09-12T02:23:52;35.63;;;25.63;;
51810;SDS011;52468;40.116;18.296;2023-09-12T02:26:20;42.73;;;26.83;;
51810;SDS011;52468;40.116;18.296;2023-09-12T02:28:48;34.57;;;27.93;;
51810;SDS011;52468;40.116;18.296;2023-09-12T02:31:16;32.63;;;24.60;;
51810;SDS011;52468;40.116;18.296;2023-09-12T02:33:44;29.10;;;21.43;;
51810;SDS011;52468;40.116;18.296;2023-09-12T02:36:12;35.87;;;25.33;;
51810;SDS011;52468;40.116;18.296;2023-09-12T02:38:40;33.90;;;23.33;;
51810;SDS011;52468;40.116;18.296;2023-09-12T02:41:08;35.93;;;25.43;;
51810;SDS011;52468;40.116;18.296;2023-09-12T02:43:36;30.30;;;26.23;;
51810;SDS011;52468;40.116;18.296;2023-09-12T02:46:04;36.17;;;26.23;;
51810;SDS011;52468;40.116;18.296;2023-09-12T02:48:32;33.50;;;26.97;;
51810;SDS011;52468;40.116;18.296;2023-09-12T02:51:00;34.83;;;27.13;;
51810;SDS011;52468;40.116;18.296;2023-09-12T02:53:27;31.73;;;24.53;;
51810;SDS011;52468;40.116;18.296;2023-09-12T02:55:55;30.20;;;24.10;;
51810;SDS011;52468;40.116;18.296;2023-09-12T02:58:24;26.27;;;21.27;;
51810;SDS011;52468;40.116;18.296;2023-09-12T03:00:52;34.00;;;23.83;;
51810;SDS011;52468;40.116;18.296;2023-09-12T03:03:21;29.97;;;25.83;;
51810;SDS011;52468;40.116;18.296;2023-09-12T03:05:57;31.67;;;25.57;;
51810;SDS011;52468;40.116;18.296;2023-09-12T03:08:26;37.07;;;27.70;;
51810;SDS011;52468;40.116;18.296;2023-09-12T03:10:54;31.13;;;25.40;;
51810;SDS011;52468;40.116;18.296;2023-09-12T03:13:23;35.37;;;24.60;;
51810;SDS011;52468;40.116;18.296;2023-09-12T03:15:53;36.83;;;27.70;;
51810;SDS011;52468;40.116;18.296;2023-09-12T03:18:21;44.43;;;30.60;;
51810;SDS011;52468;40.116;18.296;2023-09-12T03:20:49;45.53;;;32.30;;
51810;SDS011;52468;40.116;18.296;2023-09-12T03:23:19;40.60;;;31.20;;
51810;SDS011;52468;40.116;18.296;2023-09-12T03:25:47;36.93;;;28.03;;
51810;SDS011;52468;40.116;18.296;2023-09-12T03:28:15;38.93;;;30.23;;
51810;SDS011;52468;40.116;18.296;2023-09-12T03:30:43;35.20;;;28.43;;
51810;SDS011;52468;40.116;18.296;2023-09-12T03:33:11;48.10;;;35.90;;
51810;SDS011;52468;40.116;18.296;2023-09-12T03:35:39;46.87;;;35.27;;
51810;SDS011;52468;40.116;18.296;2023-09-12T03:38:10;41.43;;;32.30;;
51810;SDS011;52468;40.116;18.296;2023-09-12T03:40:38;36.93;;;30.77;;
51810;SDS011;52468;40.116;18.296;2023-09-12T03:43:06;40.47;;;31.60;;
51810;SDS011;52468;40.116;18.296;2023-09-12T03:45:34;41.83;;;29.70;;
51810;SDS011;52468;40.116;18.296;2023-09-12T03:48:02;38.93;;;29.40;;
51810;SDS011;52468;40.116;18.296;2023-09-12T03:50:30;39.40;;;30.43;;
51810;SDS011;52468;40.116;18.296;2023-09-12T03:52:58;33.73;;;28.00;;
51810;SDS011;52468;40.116;18.296;2023-09-12T03:55:26;40.57;;;30.00;;
51810;SDS011;52468;40.116;18.296;2023-09-12T03:57:55;39.93;;;29.53;;
51810;SDS011;52468;40.116;18.296;2023-09-12T04:00:23;48.23;;;35.93;;
51810;SDS011;52468;40.116;18.296;2023-09-12T04:02:50;47.37;;;34.87;;
51810;SDS011;52468;40.116;18.296;2023-09-12T04:05:18;52.37;;;36.63;;
51810;SDS011;52468;40.116;18.296;2023-09-12T04:07:46;48.60;;;33.67;;
51810;SDS011;52468;40.116;18.296;2023-09-12T04:10:14;39.20;;;31.67;;
51810;SDS011;52468;40.116;18.296;2023-09-12T04:12:42;39.10;;;31.87;;
51810;SDS011;52468;40.116;18.296;2023-09-12T04:15:10;44.10;;;31.53;;
51810;SDS011;52468;40.116;18.296;2023-09-12T04:17:38;39.47;;;31.33;;
51810;SDS011;52468;40.116;18.296;2023-09-12T04:20:06;39.50;;;31.73;;
51810;SDS011;52468;40.116;18.296;2023-09-12T04:22:34;44.00;;;32.17;;
51810;SDS011;52468;40.116;18.296;2023-09-12T04:25:02;47.73;;;33.00;;
51810;SDS011;52468;40.116;18.296;2023-09-12T04:27:30;49.27;;;32.13;;
51810;SDS011;52468;40.116;18.296;2023-09-12T04:29:58;44.77;;;33.23;;
51810;SDS011;52468;40.116;18.296;2023-09-12T04:32:26;39.33;;;30.67;;
51810;SDS011;52468;40.116;18.296;2023-09-12T04:34:54;33.80;;;28.20;;
51810;SDS011;52468;40.116;18.296;2023-09-12T04:37:22;47.60;;;28.77;;
51810;SDS011;52468;40.116;18.296;2023-09-12T04:39:50;38.03;;;28.57;;
51810;SDS011;52468;40.116;18.296;2023-09-12T04:42:20;38.97;;;27.67;;
51810;SDS011;52468;40.116;18.296;2023-09-12T04:44:48;39.40;;;28.33;;
51810;SDS011;52468;40.116;18.296;2023-09-12T04:47:16;37.40;;;28.73;;
51810;SDS011;52468;40.116;18.296;2023-09-12T04:49:44;33.63;;;27.70;;
51810;SDS011;52468;40.116;18.296;2023-09-12T04:52:12;35.13;;;27.37;;
51810;SDS011;52468;40.116;18.296;2023-09-12T04:54:40;29.73;;;25.10;;
51810;SDS011;52468;40.116;18.296;2023-09-12T04:57:07;34.23;;;25.33;;
51810;SDS011;52468;40.116;18.296;2023-09-12T04:59:35;44.10;;;26.73;;
51810;SDS011;52468;40.116;18.296;2023-09-12T05:02:03;59.90;;;28.23;;
51810;SDS011;52468;40.116;18.296;2023-09-12T05:04:31;34.73;;;22.47;;
51810;SDS011;52468;40.116;18.296;2023-09-12T05:06:59;32.77;;;23.93;;
51810;SDS011;52468;40.116;18.296;2023-09-12T05:09:28;25.67;;;18.87;;
51810;SDS011;52468;40.116;18.296;2023-09-12T05:11:56;28.07;;;19.77;;
51810;SDS011;52468;40.116;18.296;2023-09-12T05:14:25;23.33;;;17.40;;
51810;SDS011;52468;40.116;18.296;2023-09-12T05:16:53;21.33;;;16.50;;
51810;SDS011;52468;40.116;18.296;2023-09-12T05:19:21;21.70;;;16.37;;
51810;SDS011;52468;40.116;18.296;2023-09-12T05:21:50;21.23;;;16.60;;
51810;SDS011;52468;40.116;18.296;2023-09-12T05:24:18;17.77;;;15.83;;
51810;SDS011;52468;40.116;18.296;2023-09-12T05:26:46;18.77;;;16.17;;
51810;SDS011;52468;40.116;18.296;2023-09-12T05:29:15;18.27;;;15.80;;
51810;SDS011;52468;40.116;18.296;2023-09-12T05:31:43;20.90;;;15.27;;
51810;SDS011;52468;40.116;18.296;2023-09-12T05:34:11;24.47;;;16.77;;
51810;SDS011;52468;40.116;18.296;2023-09-12T05:36:39;28.77;;;20.27;;
51810;SDS011;52468;40.116;18.296;2023-09-12T05:39:07;32.63;;;23.77;;
51810;SDS011;52468;40.116;18.296;2023-09-12T05:41:36;37.67;;;25.40;;
51810;SDS011;52468;40.116;18.296;2023-09-12T05:44:04;38.90;;;24.40;;
51810;SDS011;52468;40.116;18.296;2023-09-12T05:46:32;39.27;;;28.83;;
51810;SDS011;52468;40.116;18.296;2023-09-12T05:49:00;37.80;;;27.00;;
51810;SDS011;52468;40.116;18.296;2023-09-12T05:51:28;41.80;;;29.10;;
51810;SDS011;52468;40.116;18.296;2023-09-12T05:53:56;41.53;;;29.90;;
51810;SDS011;52468;40.116;18.296;2023-09-12T05:56:24;35.47;;;27.43;;
51810;SDS011;52468;40.116;18.296;2023-09-12T05:58:52;30.40;;;23.97;;
51810;SDS011;52468;40.116;18.296;2023-09-12T06:01:20;23.40;;;18.87;;
51810;SDS011;52468;40.116;18.296;2023-09-12T06:03:47;25.37;;;20.33;;
51810;SDS011;52468;40.116;18.296;2023-09-12T06:06:15;31.63;;;18.73;;
51810;SDS011;52468;40.116;18.296;2023-09-12T06:08:43;24.63;;;18.33;;
51810;SDS011;52468;40.116;18.296;2023-09-12T06:11:11;24.77;;;18.53;;
51810;SDS011;52468;40.116;18.296;2023-09-12T06:13:39;23.17;;;17.70;;
51810;SDS011;52468;40.116;18.296;2023-09-12T06:16:07;21.73;;;18.70;;
51810;SDS011;52468;40.116;18.296;2023-09-12T06:18:35;27.47;;;17.63;;
51810;SDS011;52468;40.116;18.296;2023-09-12T06:21:03;27.03;;;16.97;;
51810;SDS011;52468;40.116;18.296;2023-09-12T06:23:33;24.13;;;14.50;;
51810;SDS011;52468;40.116;18.296;2023-09-12T06:26:01;21.77;;;16.10;;
51810;SDS011;52468;40.116;18.296;2023-09-12T06:28:30;20.83;;;14.83;;
51810;SDS011;52468;40.116;18.296;2023-09-12T06:30:58;19.73;;;13.73;;
51810;SDS011;52468;40.116;18.296;2023-09-12T06:33:26;17.73;;;12.27;;
51810;SDS011;52468;40.116;18.296;2023-09-12T06:35:55;12.73;;;11.33;;
51810;SDS011;52468;40.116;18.296;2023-09-12T06:38:23;18.13;;;11.10;;
51810;SDS011;52468;40.116;18.296;2023-09-12T06:40:51;15.77;;;9.80;;
51810;SDS011;52468;40.116;18.296;2023-09-12T06:43:21;12.53;;;9.70;;
51810;SDS011;52468;40.116;18.296;2023-09-12T06:45:48;12.50;;;8.93;;
51810;SDS011;52468;40.116;18.296;2023-09-12T06:48:17;10.23;;;8.27;;
51810;SDS011;52468;40.116;18.296;2023-09-12T06:50:45;11.37;;;8.13;;
51810;SDS011;52468;40.116;18.296;2023-09-12T06:53:17;12.73;;;8.87;;
51810;SDS011;52468;40.116;18.296;2023-09-12T06:55:45;12.60;;;8.60;;
51810;SDS011;52468;40.116;18.296;2023-09-12T06:58:13;12.17;;;8.67;;
51810;SDS011;52468;40.116;18.296;2023-09-12T07:00:41;9.53;;;7.63;;
51810;SDS011;52468;40.116;18.296;2023-09-12T07:03:09;10.63;;;8.33;;
51810;SDS011;52468;40.116;18.296;2023-09-12T07:05:38;8.83;;;7.00;;
51810;SDS011;52468;40.116;18.296;2023-09-12T07:08:07;8.33;;;5.93;;
51810;SDS011;52468;40.116;18.296;2023-09-12T07:10:35;10.33;;;5.90;;
51810;SDS011;52468;40.116;18.296;2023-09-12T07:13:03;9.27;;;6.67;;
51810;SDS011;52468;40.116;18.296;2023-09-12T07:15:31;7.53;;;5.80;;
51810;SDS011;52468;40.116;18.296;2023-09-12T07:18:02;6.53;;;5.43;;
51810;SDS011;52468;40.116;18.296;2023-09-12T07:20:31;9.53;;;5.40;;
51810;SDS011;52468;40.116;18.296;2023-09-12T07:23:02;7.07;;;5.07;;
51810;SDS011;52468;40.116;18.296;2023-09-12T07:25:30;6.32;;;5.20;;
51810;SDS011;52468;40.116;18.296;2023-09-12T07:28:02;5.80;;;4.25;;
51810;SDS011;52468;40.116;18.296;2023-09-12T07:30:31;6.30;;;4.65;;
51810;SDS011;52468;40.116;18.296;2023-09-12T07:32:59;9.00;;;5.85;;
51810;SDS011;52468;40.116;18.296;2023-09-12T07:35:26;5.88;;;4.75;;
51810;SDS011;52468;40.116;18.296;2023-09-12T07:37:54;8.25;;;5.63;;
51810;SDS011;52468;40.116;18.296;2023-09-12T07:40:22;6.32;;;4.43;;
51810;SDS011;52468;40.116;18.296;2023-09-12T07:42:50;7.95;;;4.43;;
51810;SDS011;52468;40.116;18.296;2023-09-12T07:45:18;5.97;;;4.90;;
51810;SDS011;52468;40.116;18.296;2023-09-12T07:47:47;4.90;;;4.40;;
51810;SDS011;52468;40.116;18.296;2023-09-12T07:50:15;8.55;;;4.28;;
51810;SDS011;52468;40.116;18.296;2023-09-12T07:52:43;9.82;;;4.80;;
51810;SDS011;52468;40.116;18.296;2023-09-12T07:55:11;8.02;;;5.40;;
51810;SDS011;52468;40.116;18.296;2023-09-12T07:57:39;8.48;;;4.40;;
51810;SDS011;52468;40.116;18.296;2023-09-12T08:00:07;6.38;;;4.18;;
51810;SDS011;52468;40.116;18.296;2023-09-12T08:02:39;6.55;;;3.75;;
51810;SDS011;52468;40.116;18.296;2023-09-12T08:05:07;7.18;;;4.35;;
51810;SDS011;52468;40.116;18.296;2023-09-12T08:07:35;7.25;;;4.22;;
51810;SDS011;52468;40.116;18.296;2023-09-12T08:10:03;5.82;;;4.45;;
51810;SDS011;52468;40.116;18.296;2023-09-12T08:12:32;6.68;;;4.45;;
51810;SDS011;52468;40.116;18.296;2023-09-12T08:15:00;6.00;;;4.60;;
51810;SDS011;52468;40.116;18.296;2023-09-12T08:17:28;7.47;;;4.93;;
51810;SDS011;52468;40.116;18.296;2023-09-12T08:19:56;7.50;;;3.80;;
51810;SDS011;52468;40.116;18.296;2023-09-12T08:22:23;7.07;;;3.65;;
51810;SDS011;52468;40.116;18.296;2023-09-12T08:24:51;7.47;;;4.15;;
51810;SDS011;52468;40.116;18.296;2023-09-12T08:27:19;5.97;;;4.22;;
51810;SDS011;52468;40.116;18.296;2023-09-12T08:29:48;6.72;;;3.55;;
51810;SDS011;52468;40.116;18.296;2023-09-12T08:32:16;6.30;;;4.45;;
51810;SDS011;52468;40.116;18.296;2023-09-12T08:34:45;4.50;;;3.67;;
51810;SDS011;52468;40.116;18.296;2023-09-12T08:37:13;6.15;;;4.35;;
51810;SDS011;52468;40.116;18.296;2023-09-12T08:39:42;6.00;;;3.33;;
51810;SDS011;52468;40.116;18.296;2023-09-12T08:42:14;7.13;;;4.13;;
51810;SDS011;52468;40.116;18.296;2023-09-12T08:44:43;6.32;;;4.18;;
51810;SDS011;52468;40.116;18.296;2023-09-12T08:47:11;6.88;;;4.40;;
51810;SDS011;52468;40.116;18.296;2023-09-12T08:49:41;6.50;;;4.43;;
51810;SDS011;52468;40.116;18.296;2023-09-12T08:52:12;6.35;;;3.72;;
51810;SDS011;52468;40.116;18.296;2023-09-12T08:54:39;6.15;;;3.35;;
51810;SDS011;52468;40.116;18.296;2023-09-12T08:57:08;6.53;;;3.67;;
51810;SDS011;52468;40.116;18.296;2023-09-12T08:59:38;7.43;;;3.83;;
51810;SDS011;52468;40.116;18.296;2023-09-12T09:02:09;7.30;;;4.22;;
51810;SDS011;52468;40.116;18.296;2023-09-12T09:04:38;6.25;;;3.72;;
51810;SDS011;52468;40.116;18.296;2023-09-12T09:07:07;5.90;;;3.58;;
51810;SDS011;52468;40.116;18.296;2023-09-12T09:09:36;3.75;;;3.45;;
51810;SDS011;52468;40.116;18.296;2023-09-12T09:12:08;8.48;;;3.60;;
51810;SDS011;52468;40.116;18.296;2023-09-12T09:14:37;11.77;;;4.55;;
51810;SDS011;52468;40.116;18.296;2023-09-12T09:17:05;7.90;;;4.90;;
51810;SDS011;52468;40.116;18.296;2023-09-12T09:19:44;5.32;;;4.15;;
51810;SDS011;52468;40.116;18.296;2023-09-12T09:22:13;5.45;;;4.20;;
51810;SDS011;52468;40.116;18.296;2023-09-12T09:24:41;5.95;;;4.28;;
51810;SDS011;52468;40.116;18.296;2023-09-12T09:27:09;6.45;;;3.88;;
51810;SDS011;52468;40.116;18.296;2023-09-12T09:29:46;6.72;;;3.88;;
51810;SDS011;52468;40.116;18.296;2023-09-12T09:32:18;8.35;;;4.55;;
51810;SDS011;52468;40.116;18.296;2023-09-12T09:34:49;7.80;;;4.57;;
51810;SDS011;52468;40.116;18.296;2023-09-12T09:37:16;6.88;;;4.65;;
51810;SDS011;52468;40.116;18.296;2023-09-12T09:39:47;4.97;;;4.07;;
51810;SDS011;52468;40.116;18.296;2023-09-12T09:42:19;5.72;;;4.00;;
51810;SDS011;52468;40.116;18.296;2023-09-12T09:44:47;9.85;;;4.25;;
51810;SDS011;52468;40.116;18.296;2023-09-12T09:47:16;9.18;;;4.38;;
51810;SDS011;52468;40.116;18.296;2023-09-12T09:49:46;9.32;;;4.72;;
51810;SDS011;52468;40.116;18.296;2023-09-12T09:52:14;5.72;;;3.60;;
51810;SDS011;52468;40.116;18.296;2023-09-12T09:54:43;7.28;;;4.05;;
51810;SDS011;52468;40.116;18.296;2023-09-12T09:57:12;9.95;;;4.38;;
51810;SDS011;52468;40.116;18.296;2023-09-12T09:59:40;9.35;;;3.85;;
51810;SDS011;52468;40.116;18.296;2023-09-12T10:02:09;7.32;;;4.03;;
51810;SDS011;52468;40.116;18.296;2023-09-12T10:04:43;7.53;;;3.80;;
51810;SDS011;52468;40.116;18.296;2023-09-12T10:07:12;7.30;;;4.65;;
51810;SDS011;52468;40.116;18.296;2023-09-12T10:09:41;8.20;;;3.88;;
51810;SDS011;52468;40.116;18.296;2023-09-12T10:12:11;7.78;;;4.13;;
51810;SDS011;52468;40.116;18.296;2023-09-12T10:14:40;6.95;;;3.28;;
51810;SDS011;52468;40.116;18.296;2023-09-12T10:17:09;4.72;;;3.88;;
51810;SDS011;52468;40.116;18.296;2023-09-12T10:19:43;6.85;;;3.30;;
51810;SDS011;52468;40.116;18.296;2023-09-12T10:22:32;4.60;;;3.97;;
51810;SDS011;52468;40.116;18.296;2023-09-12T10:25:04;4.68;;;3.63;;
51810;SDS011;52468;40.116;18.296;2023-09-12T10:27:32;5.25;;;2.97;;
51810;SDS011;52468;40.116;18.296;2023-09-12T10:30:03;6.97;;;3.63;;
51810;SDS011;52468;40.116;18.296;2023-09-12T10:32:32;5.00;;;3.35;;
51810;SDS011;52468;40.116;18.296;2023-09-12T10:35:01;5.18;;;3.53;;
51810;SDS011;52468;40.116;18.296;2023-09-12T10:37:30;10.20;;;4.07;;
51810;SDS011;52468;40.116;18.296;2023-09-12T10:40:02;4.15;;;2.78;;
51810;SDS011;52468;40.116;18.296;2023-09-12T10:42:34;7.35;;;3.35;;
51810;SDS011;52468;40.116;18.296;2023-09-12T10:45:03;7.30;;;3.67;;
51810;SDS011;52468;40.116;18.296;2023-09-12T10:47:38;4.70;;;3.30;;
51810;SDS011;52468;40.116;18.296;2023-09-12T10:50:06;7.22;;;3.33;;
51810;SDS011;52468;40.116;18.296;2023-09-12T10:52:35;4.97;;;3.28;;
51810;SDS011;52468;40.116;18.296;2023-09-12T10:55:07;9.38;;;4.32;;
51810;SDS011;52468;40.116;18.296;2023-09-12T10:57:35;6.95;;;3.17;;
51810;SDS011;52468;40.116;18.296;2023-09-12T11:00:37;7.85;;;3.90;;
51810;SDS011;52468;40.116;18.296;2023-09-12T11:03:35;5.63;;;3.38;;
51810;SDS011;52468;40.116;18.296;2023-09-12T11:06:03;5.82;;;3.53;;
51810;SDS011;52468;40.116;18.296;2023-09-12T11:08:35;5.25;;;4.18;;
51810;SDS011;52468;40.116;18.296;2023-09-12T11:11:17;3.97;;;3.30;;
51810;SDS011;52468;40.116;18.296;2023-09-12T11:14:04;4.75;;;3.50;;
51810;SDS011;52468;40.116;18.296;2023-09-12T11:16:33;8.43;;;4.00;;
51810;SDS011;52468;40.116;18.296;2023-09-12T11:19:20;5.28;;;3.78;;
51810;SDS011;52468;40.116;18.296;2023-09-12T11:21:52;5.57;;;3.45;;
51810;SDS011;52468;40.116;18.296;2023-09-12T11:24:21;4.95;;;3.65;;
51810;SDS011;52468;40.116;18.296;2023-09-12T11:27:07;5.97;;;3.08;;
51810;SDS011;52468;40.116;18.296;2023-09-12T11:29:36;9.13;;;4.28;;
51810;SDS011;52468;40.116;18.296;2023-09-12T11:32:05;7.40;;;3.55;;
51810;SDS011;52468;40.116;18.296;2023-09-12T11:34:38;5.20;;;3.60;;
51810;SDS011;52468;40.116;18.296;2023-09-12T11:37:10;4.60;;;3.47;;
51810;SDS011;52468;40.116;18.296;2023-09-12T11:39:49;4.50;;;3.35;;
51810;SDS011;52468;40.116;18.296;2023-09-12T11:42:18;8.88;;;3.80;;
51810;SDS011;52468;40.116;18.296;2023-09-12T11:44:48;6.20;;;3.60;;
51810;SDS011;52468;40.116;18.296;2023-09-12T11:47:17;8.43;;;3.50;;
51810;SDS011;52468;40.116;18.296;2023-09-12T11:49:45;6.97;;;3.55;;
51810;SDS011;52468;40.116;18.296;2023-09-12T11:52:14;4.88;;;3.45;;
51810;SDS011;52468;40.116;18.296;2023-09-12T11:54:47;5.75;;;4.45;;
51810;SDS011;52468;40.116;18.296;2023-09-12T11:57:15;6.22;;;4.30;;
51810;SDS011;52468;40.116;18.296;2023-09-12T11:59:44;7.38;;;3.78;;
51810;SDS011;52468;40.116;18.296;2023-09-12T12:02:14;5.85;;;4.15;;
51810;SDS011;52468;40.116;18.296;2023-09-12T12:04:42;6.90;;;4.03;;
51810;SDS011;52468;40.116;18.296;2023-09-12T12:07:10;6.82;;;3.58;;
51810;SDS011;52468;40.116;18.296;2023-09-12T12:09:40;7.40;;;4.40;;
51810;SDS011;52468;40.116;18.296;2023-09-12T12:12:14;10.18;;;5.75;;
51810;SDS011;52468;40.116;18.296;2023-09-12T12:14:42;5.97;;;5.45;;
51810;SDS011;52468;40.116;18.296;2023-09-12T12:17:12;4.80;;;4.00;;
51810;SDS011;52468;40.116;18.296;2023-09-12T12:19:40;4.88;;;4.13;;
51810;SDS011;52468;40.116;18.296;2023-09-12T12:22:13;5.70;;;4.18;;
51810;SDS011;52468;40.116;18.296;2023-09-12T12:24:45;5.60;;;5.10;;
51810;SDS011;52468;40.116;18.296;2023-09-12T12:27:15;5.97;;;4.10;;
51810;SDS011;52468;40.116;18.296;2023-09-12T12:29:43;6.85;;;4.70;;
51810;SDS011;52468;40.116;18.296;2023-09-12T12:32:14;7.13;;;4.63;;
51810;SDS011;52468;40.116;18.296;2023-09-12T12:34:47;4.75;;;4.25;;
51810;SDS011;52468;40.116;18.296;2023-09-12T12:37:16;5.03;;;3.80;;
51810;SDS011;52468;40.116;18.296;2023-09-12T12:39:44;7.05;;;4.28;;
51810;SDS011;52468;40.116;18.296;2023-09-12T12:42:12;6.88;;;4.05;;
51810;SDS011;52468;40.116;18.296;2023-09-12T12:44:40;4.60;;;4.20;;
51810;SDS011;52468;40.116;18.296;2023-09-12T12:47:08;6.85;;;4.40;;
51810;SDS011;52468;40.116;18.296;2023-09-12T12:49:39;7.35;;;4.63;;
51810;SDS011;52468;40.116;18.296;2023-09-12T12:52:09;7.45;;;4.53;;
51810;SDS011;52468;40.116;18.296;2023-09-12T12:54:37;5.15;;;4.05;;
51810;SDS011;52468;40.116;18.296;2023-09-12T12:57:09;7.95;;;4.45;;
51810;SDS011;52468;40.116;18.296;2023-09-12T12:59:44;4.20;;;3.78;;
51810;SDS011;52468;40.116;18.296;2023-09-12T13:02:13;5.93;;;4.30;;
51810;SDS011;52468;40.116;18.296;2023-09-12T13:04:41;6.45;;;3.75;;
51810;SDS011;52468;40.116;18.296;2023-09-12T13:07:09;4.90;;;4.35;;
51810;SDS011;52468;40.116;18.296;2023-09-12T13:09:38;8.57;;;4.68;;
51810;SDS011;52468;40.116;18.296;2023-09-12T13:12:05;6.97;;;4.78;;
51810;SDS011;52468;40.116;18.296;2023-09-12T13:14:34;4.55;;;4.07;;
51810;SDS011;52468;40.116;18.296;2023-09-12T13:17:02;5.47;;;4.60;;
51810;SDS011;52468;40.116;18.296;2023-09-12T13:19:31;4.93;;;4.32;;
51810;SDS011;52468;40.116;18.296;2023-09-12T13:21:59;4.20;;;3.80;;
51810;SDS011;52468;40.116;18.296;2023-09-12T13:24:27;7.70;;;4.55;;
51810;SDS011;52468;40.116;18.296;2023-09-12T13:26:58;6.03;;;5.05;;
51810;SDS011;52468;40.116;18.296;2023-09-12T13:29:26;6.07;;;3.95;;
51810;SDS011;52468;40.116;18.296;2023-09-12T13:31:54;6.97;;;4.57;;
51810;SDS011;52468;40.116;18.296;2023-09-12T13:34:22;9.02;;;4.70;;
51810;SDS011;52468;40.116;18.296;2023-09-12T13:36:50;10.05;;;6.07;;
51810;SDS011;52468;40.116;18.296;2023-09-12T13:39:24;7.55;;;4.18;;
51810;SDS011;52468;40.116;18.296;2023-09-12T13:41:52;6.10;;;4.35;;
51810;SDS011;52468;40.116;18.296;2023-09-12T13:44:23;5.82;;;4.13;;
51810;SDS011;52468;40.116;18.296;2023-09-12T13:46:51;9.35;;;4.07;;
51810;SDS011;52468;40.116;18.296;2023-09-12T13:49:19;5.20;;;3.78;;
51810;SDS011;52468;40.116;18.296;2023-09-12T13:51:47;4.72;;;4.13;;
51810;SDS011;52468;40.116;18.296;2023-09-12T13:54:15;6.20;;;4.13;;
51810;SDS011;52468;40.116;18.296;2023-09-12T13:56:46;6.18;;;4.47;;
51810;SDS011;52468;40.116;18.296;2023-09-12T13:59:13;6.60;;;3.60;;
51810;SDS011;52468;40.116;18.296;2023-09-12T14:01:43;8.02;;;4.18;;
51810;SDS011;52468;40.116;18.296;2023-09-12T14:04:10;3.97;;;3.47;;
51810;SDS011;52468;40.116;18.296;2023-09-12T14:06:38;8.75;;;4.20;;
51810;SDS011;52468;40.116;18.296;2023-09-12T14:09:07;5.22;;;3.33;;
51810;SDS011;52468;40.116;18.296;2023-09-12T14:11:35;7.65;;;3.47;;
51810;SDS011;52468;40.116;18.296;2023-09-12T14:14:03;4.70;;;3.85;;
51810;SDS011;52468;40.116;18.296;2023-09-12T14:16:34;2.97;;;2.63;;
51810;SDS011;52468;40.116;18.296;2023-09-12T14:19:02;6.32;;;3.00;;
51810;SDS011;52468;40.116;18.296;2023-09-12T14:21:30;6.88;;;2.83;;
51810;SDS011;52468;40.116;18.296;2023-09-12T14:23:58;3.53;;;2.90;;
51810;SDS011;52468;40.116;18.296;2023-09-12T14:26:27;4.90;;;2.88;;
51810;SDS011;52468;40.116;18.296;2023-09-12T14:28:56;3.53;;;3.08;;
51810;SDS011;52468;40.116;18.296;2023-09-12T14:31:24;5.20;;;2.75;;
51810;SDS011;52468;40.116;18.296;2023-09-12T14:33:52;5.40;;;2.22;;
51810;SDS011;52468;40.116;18.296;2023-09-12T14:36:19;5.65;;;2.50;;
51810;SDS011;52468;40.116;18.296;2023-09-12T14:38:47;3.60;;;2.72;;
51810;SDS011;52468;40.116;18.296;2023-09-12T14:41:15;5.72;;;2.60;;